createdAt,value
2022-08-27T00:01:51.987Z,18.90
2022-08-27T00:06:53.678Z,18.90
2022-08-27T00:11:58.515Z,18.85
2022-08-27T00:17:00.086Z,18.80
2022-08-27T00:22:01.667Z,18.69
2022-08-27T00:27:04.452Z,18.68
2022-08-27T00:32:08.963Z,18.71
2022-08-27T00:37:11.058Z,18.64
2022-08-27T00:42:12.640Z,18.69
2022-08-27T00:47:19.912Z,18.60
2022-08-27T00:52:32.425Z,18.58
2022-08-27T00:57:35.854Z,18.49
2022-08-27T01:02:38.842Z,18.50
2022-08-27T01:07:42.958Z,18.55
2022-08-27T01:12:44.809Z,18.53
2022-08-27T01:17:57.100Z,18.54
2022-08-27T01:23:22.351Z,18.58
2022-08-27T01:28:26.850Z,18.44
2022-08-27T01:33:37.958Z,18.48
2022-08-27T01:38:39.481Z,18.43
2022-08-27T01:43:40.980Z,18.45
2022-08-27T01:48:42.485Z,18.35
2022-08-27T01:53:44.226Z,18.32
2022-08-27T01:58:45.801Z,18.26
2022-08-27T02:03:48.324Z,18.25
2022-08-27T02:08:50.534Z,18.17
2022-08-27T02:13:52.365Z,18.18
2022-08-27T02:18:54.556Z,18.21
2022-08-27T02:23:57.681Z,18.22
2022-08-27T02:28:59.258Z,18.10
2022-08-27T02:34:01.062Z,18.10
2022-08-27T02:39:03.282Z,18.10
2022-08-27T02:44:10.104Z,18.12
2022-08-27T02:49:13.284Z,18.00
2022-08-27T02:54:14.810Z,18.03
2022-08-27T02:59:16.843Z,17.97
2022-08-27T03:04:19.858Z,17.90
2022-08-27T03:09:21.630Z,17.89
2022-08-27T03:14:23.163Z,17.81
2022-08-27T03:19:25.470Z,17.73
2022-08-27T03:24:26.995Z,17.66
2022-08-27T03:29:31.014Z,17.67
2022-08-27T03:34:37.013Z,17.57
2022-08-27T03:39:38.549Z,17.50
2022-08-27T03:44:40.157Z,17.50
2022-08-27T03:49:41.731Z,17.39
2022-08-27T03:54:43.330Z,17.32
2022-08-27T03:59:44.989Z,17.27
2022-08-27T04:04:46.491Z,17.26
2022-08-27T04:09:48.002Z,17.26
2022-08-27T04:14:49.630Z,17.20
2022-08-27T04:19:52.553Z,17.12
2022-08-27T04:24:55.417Z,17.12
2022-08-27T04:29:59.560Z,17.09
2022-08-27T04:35:01.352Z,17.08
2022-08-27T04:40:03.732Z,17.04
2022-08-27T04:45:05.856Z,17.02
2022-08-27T04:50:07.648Z,16.97
2022-08-27T04:55:10.085Z,16.85
2022-08-27T05:00:12.537Z,16.86
2022-08-27T05:05:16.027Z,16.90
2022-08-27T05:10:17.993Z,16.93
2022-08-27T05:15:19.496Z,16.90
2022-08-27T05:20:21.010Z,16.88
2022-08-27T05:25:24.237Z,16.89
2022-08-27T05:30:25.708Z,16.93
2022-08-27T05:35:27.252Z,16.93
2022-08-27T05:40:28.835Z,16.90
2022-08-27T05:45:30.375Z,16.86
2022-08-27T05:50:31.901Z,16.76
2022-08-27T05:55:39.152Z,16.72
2022-08-27T06:01:02.535Z,16.75
2022-08-27T06:06:11.061Z,16.76
2022-08-27T06:11:12.593Z,16.82
2022-08-27T06:16:16.900Z,16.83
2022-08-27T06:21:24.239Z,16.81
2022-08-27T06:26:27.158Z,16.92
2022-08-27T06:31:28.787Z,17.04
2022-08-27T06:36:30.865Z,17.09
2022-08-27T06:41:34.077Z,17.05
2022-08-27T06:46:37.185Z,17.06
2022-08-27T06:51:39.566Z,17.13
2022-08-27T06:56:42.376Z,17.19
2022-08-27T07:01:46.820Z,17.26
2022-08-27T07:06:49.123Z,17.23
2022-08-27T07:11:50.934Z,17.32
2022-08-27T07:16:52.559Z,17.39
2022-08-27T07:21:54.717Z,17.60
2022-08-27T07:26:56.321Z,17.57
2022-08-27T07:31:57.875Z,17.50
2022-08-27T07:36:59.433Z,17.64
2022-08-27T07:42:19.392Z,17.84
2022-08-27T07:47:20.909Z,18.14
2022-08-27T07:52:26.300Z,18.27
2022-08-27T07:57:28.177Z,18.07
2022-08-27T08:02:30.817Z,17.88
2022-08-27T08:07:34.354Z,17.94
2022-08-27T08:12:37.299Z,17.98
2022-08-27T08:17:39.268Z,18.14
2022-08-27T08:22:40.813Z,18.30
2022-08-27T08:27:42.510Z,18.40
2022-08-27T08:32:44.122Z,18.54
2022-08-27T08:37:46.173Z,18.88
2022-08-27T08:42:53.008Z,19.28
2022-08-27T08:48:04.889Z,19.39
2022-08-27T08:53:19.979Z,19.52
2022-08-27T08:58:48.017Z,20.00
2022-08-27T09:03:59.258Z,20.25
2022-08-27T09:09:31.639Z,20.56
2022-08-27T09:14:41.551Z,20.49
2022-08-27T09:19:47.809Z,20.71
2022-08-27T09:25:25.544Z,21.48
2022-08-27T09:30:31.031Z,21.00
2022-08-27T09:35:46.150Z,21.04
2022-08-27T09:40:51.073Z,21.35
2022-08-27T09:45:56.662Z,21.60
2022-08-27T09:51:02.711Z,22.97
2022-08-27T09:56:07.805Z,25.80
2022-08-27T10:01:29.454Z,26.81
2022-08-27T10:06:31.897Z,26.70
2022-08-27T10:11:44.015Z,25.89
2022-08-27T10:17:19.799Z,25.42
2022-08-27T10:22:32.654Z,25.36
2022-08-27T10:28:01.913Z,26.89
2022-08-27T10:33:19.240Z,29.37
2022-08-27T10:38:42.375Z,29.77
2022-08-27T10:43:52.069Z,30.10
2022-08-27T10:49:21.587Z,30.42
2022-08-27T10:54:39.855Z,30.15
2022-08-27T10:59:57.921Z,30.73
2022-08-27T11:05:07.441Z,30.43
2022-08-27T11:10:21.036Z,30.23
2022-08-27T11:15:28.810Z,31.04
2022-08-27T11:20:54.175Z,30.79
2022-08-27T11:26:02.695Z,30.90
2022-08-27T11:31:31.850Z,29.96
2022-08-27T11:36:54.259Z,29.89
2022-08-27T11:41:59.292Z,29.56
2022-08-27T11:47:27.961Z,28.83
2022-08-27T11:52:35.235Z,28.98
2022-08-27T11:57:37.640Z,29.42
2022-08-27T12:02:39.551Z,29.45
2022-08-27T12:07:44.947Z,29.52
2022-08-27T12:13:21.180Z,29.60
2022-08-27T12:19:00.064Z,29.73
2022-08-27T12:24:23.587Z,29.38
2022-08-27T12:29:43.937Z,29.53
2022-08-27T12:34:59.531Z,29.48
2022-08-27T12:40:07.072Z,29.57
2022-08-27T12:45:17.835Z,29.90
2022-08-27T12:50:23.961Z,29.72
2022-08-27T12:55:49.568Z,29.62
2022-08-27T13:01:11.125Z,28.96
2022-08-27T13:06:36.796Z,29.73
2022-08-27T13:11:55.656Z,29.68
2022-08-27T13:17:02.885Z,29.58
2022-08-27T13:22:07.065Z,29.53
2022-08-27T13:27:08.578Z,29.81
2022-08-27T13:32:14.217Z,29.34
2022-08-27T13:37:26.242Z,29.23
2022-08-27T13:42:28.502Z,28.96
2022-08-27T13:47:43.074Z,29.49
2022-08-27T13:53:23.197Z,29.39
2022-08-27T13:58:28.993Z,29.40
2022-08-27T14:03:36.494Z,28.99
2022-08-27T14:08:39.958Z,28.70
2022-08-27T14:13:45.909Z,28.69
2022-08-27T14:19:02.442Z,28.71
2022-08-27T14:24:04.597Z,28.23
2022-08-27T14:29:12.529Z,28.20
2022-08-27T14:34:15.670Z,28.21
2022-08-27T14:39:17.434Z,28.04
2022-08-27T14:44:22.320Z,27.33
2022-08-27T14:49:31.781Z,27.24
2022-08-27T14:54:33.875Z,27.03
2022-08-27T14:59:36.376Z,26.74
2022-08-27T15:04:38.660Z,26.31
2022-08-27T15:09:40.411Z,26.18
2022-08-27T15:14:43.339Z,26.26
2022-08-27T15:19:44.852Z,25.95
2022-08-27T15:24:51.271Z,25.73
2022-08-27T15:29:53.011Z,25.76
2022-08-27T15:34:56.132Z,25.61
2022-08-27T15:40:00.521Z,25.37
2022-08-27T15:45:02.783Z,25.19
2022-08-27T15:50:05.648Z,24.99
2022-08-27T15:55:22.439Z,24.94
2022-08-27T16:00:24.742Z,24.48
2022-08-27T16:05:28.536Z,24.37
2022-08-27T16:10:30.058Z,24.16
2022-08-27T16:15:34.091Z,23.91
2022-08-27T16:20:36.845Z,23.72
2022-08-27T16:25:38.362Z,23.57
2022-08-27T16:30:41.018Z,23.33
2022-08-27T16:35:42.614Z,23.19
2022-08-27T16:40:50.982Z,23.11
2022-08-27T16:45:54.859Z,22.87
2022-08-27T16:50:58.579Z,22.71
2022-08-27T16:56:00.542Z,22.52
2022-08-27T17:01:08.537Z,22.31
2022-08-27T17:06:10.711Z,22.08
2022-08-27T17:11:19.075Z,21.92
2022-08-27T17:16:24.753Z,21.74
2022-08-27T17:21:30.024Z,21.51
2022-08-27T17:26:33.725Z,21.44
2022-08-27T17:31:38.366Z,21.36
2022-08-27T17:36:39.898Z,21.05
2022-08-27T17:41:48.708Z,20.96
2022-08-27T17:46:52.484Z,20.78
2022-08-27T17:52:00.305Z,20.61
2022-08-27T17:57:04.277Z,20.39
2022-08-27T18:02:05.713Z,20.11
2022-08-27T18:07:07.374Z,19.84
2022-08-27T18:12:12.898Z,19.66
2022-08-27T18:17:14.492Z,19.58
2022-08-27T18:22:16.193Z,19.35
2022-08-27T18:27:18.162Z,19.14
2022-08-27T18:32:19.655Z,19.00
2022-08-27T18:37:21.284Z,18.84
2022-08-27T18:42:22.935Z,18.69
2022-08-27T18:47:24.459Z,18.60
2022-08-27T18:52:26.353Z,18.47
2022-08-27T18:57:27.850Z,18.27
2022-08-27T19:02:29.586Z,18.08
2022-08-27T19:07:32.141Z,17.93
2022-08-27T19:12:33.959Z,17.94
2022-08-27T19:17:40.173Z,17.75
2022-08-27T19:22:41.694Z,17.69
2022-08-27T19:27:44.949Z,17.63
2022-08-27T19:32:46.535Z,17.38
2022-08-27T19:37:52.697Z,17.25
2022-08-27T19:42:54.989Z,17.22
2022-08-27T19:47:56.795Z,17.07
2022-08-27T19:52:58.355Z,16.99
2022-08-27T19:57:59.986Z,16.92
2022-08-27T20:03:01.723Z,16.81
2022-08-27T20:08:04.816Z,16.70
2022-08-27T20:13:07.936Z,16.63
2022-08-27T20:18:10.000Z,16.59
2022-08-27T20:23:11.838Z,16.41
2022-08-27T20:28:37.749Z,16.30
2022-08-27T20:33:35.304Z,16.18
2022-08-27T20:38:37.117Z,16.24
2022-08-27T20:43:38.754Z,16.06
2022-08-27T20:48:40.357Z,16.02
2022-08-27T20:53:41.880Z,15.94
2022-08-27T20:59:02.199Z,15.91
2022-08-27T21:04:04.303Z,15.74
2022-08-27T21:09:06.104Z,15.67
2022-08-27T21:14:07.764Z,15.56
2022-08-27T21:19:09.777Z,15.57
2022-08-27T21:24:11.471Z,15.55
2022-08-27T21:29:14.727Z,15.46
2022-08-27T21:34:16.266Z,15.42
2022-08-27T21:39:18.056Z,15.38
2022-08-27T21:44:19.596Z,15.24
2022-08-27T21:49:21.177Z,15.21
2022-08-27T21:54:23.477Z,15.22
2022-08-27T21:59:27.752Z,15.10
2022-08-27T22:04:31.615Z,14.97
2022-08-27T22:09:33.746Z,14.86
2022-08-27T22:14:36.808Z,14.83
2022-08-27T22:19:38.331Z,14.67
2022-08-27T22:24:39.842Z,14.62
2022-08-27T22:29:41.455Z,14.55
2022-08-27T22:34:42.986Z,14.44
2022-08-27T22:39:44.529Z,14.39
2022-08-27T22:44:46.426Z,14.35
2022-08-27T22:49:48.162Z,14.27
2022-08-27T22:54:55.023Z,14.18
2022-08-27T22:59:58.209Z,14.17
2022-08-27T23:05:01.510Z,14.15
2022-08-27T23:10:08.908Z,14.12
2022-08-27T23:15:11.489Z,14.09
2022-08-27T23:20:14.460Z,14.05
2022-08-27T23:25:36.128Z,13.96
2022-08-27T23:30:38.165Z,13.83
2022-08-27T23:35:41.205Z,13.75
2022-08-27T23:40:43.245Z,13.78
2022-08-27T23:45:45.262Z,13.69
2022-08-27T23:50:46.834Z,13.64
2022-08-27T23:55:48.363Z,13.61
